createdAt,value
2022-11-13T00:01:28.987Z,12.54
2022-11-13T00:04:51.310Z,12.53
2022-11-13T00:08:13.813Z,12.50
2022-11-13T00:11:37.372Z,12.61
2022-11-13T00:14:59.732Z,12.52
2022-11-13T00:18:23.320Z,12.47
2022-11-13T00:21:45.673Z,12.53
2022-11-13T00:25:07.880Z,12.57
2022-11-13T00:28:30.227Z,12.58
2022-11-13T00:31:52.381Z,12.49
2022-11-13T00:35:16.032Z,12.54
2022-11-13T00:38:38.642Z,12.41
2022-11-13T00:42:01.077Z,12.55
2022-11-13T00:45:23.433Z,12.24
2022-11-13T00:48:45.464Z,12.03
2022-11-13T00:52:09.313Z,12.33
2022-11-13T00:55:31.553Z,12.33
2022-11-13T00:58:53.786Z,12.34
2022-11-13T01:02:16.395Z,12.52
2022-11-13T01:05:39.575Z,12.52
2022-11-13T01:09:03.760Z,12.50
2022-11-13T01:12:26.204Z,12.53
2022-11-13T01:15:48.254Z,12.34
2022-11-13T01:19:10.672Z,12.55
2022-11-13T01:22:32.874Z,12.49
2022-11-13T01:25:56.431Z,12.50
2022-11-13T01:29:19.052Z,12.54
2022-11-13T01:32:40.958Z,12.14
2022-11-13T01:36:04.625Z,12.41
2022-11-13T01:39:27.094Z,12.47
2022-11-13T01:42:50.898Z,12.34
2022-11-13T01:46:23.417Z,12.29
2022-11-13T01:49:47.252Z,12.45
2022-11-13T01:53:09.791Z,12.57
2022-11-13T01:56:32.471Z,12.46
2022-11-13T02:00:00.392Z,12.60
2022-11-13T02:03:22.810Z,12.66
2022-11-13T02:06:49.871Z,12.81
2022-11-13T02:10:12.169Z,12.78
2022-11-13T02:13:35.211Z,12.59
2022-11-13T02:17:02.488Z,12.54
2022-11-13T02:20:33.761Z,12.24
2022-11-13T02:24:02.626Z,12.42
2022-11-13T02:27:32.048Z,12.52
2022-11-13T02:30:54.171Z,12.36
2022-11-13T02:34:16.247Z,12.53
2022-11-13T02:37:38.441Z,12.64
2022-11-13T02:41:00.563Z,12.77
2022-11-13T02:44:24.263Z,12.83
2022-11-13T02:47:46.621Z,12.77
2022-11-13T02:51:08.917Z,12.83
2022-11-13T02:54:31.258Z,12.92
2022-11-13T02:57:53.307Z,12.83
2022-11-13T03:01:16.931Z,12.93
2022-11-13T03:05:10.207Z,12.94
2022-11-13T03:08:21.100Z,12.95
2022-11-13T03:11:44.607Z,13.02
2022-11-13T03:15:08.005Z,12.88
2022-11-13T03:18:31.484Z,12.85
2022-11-13T03:21:53.535Z,12.73
2022-11-13T03:25:15.783Z,12.82
2022-11-13T03:28:38.736Z,12.93
2022-11-13T03:32:00.643Z,12.94
2022-11-13T03:35:27.556Z,12.90
2022-11-13T03:38:52.767Z,12.85
2022-11-13T03:42:14.901Z,12.99
2022-11-13T03:45:37.193Z,12.90
2022-11-13T03:48:59.380Z,12.76
2022-11-13T03:52:23.019Z,12.72
2022-11-13T03:55:45.279Z,12.75
2022-11-13T03:59:07.659Z,12.99
2022-11-13T04:02:31.032Z,12.91
2022-11-13T04:05:53.051Z,12.88
2022-11-13T04:09:16.780Z,12.78
2022-11-13T04:12:38.951Z,12.82
2022-11-13T04:16:01.212Z,12.74
2022-11-13T04:19:23.465Z,12.75
2022-11-13T04:22:45.711Z,12.83
2022-11-13T04:26:09.535Z,12.82
2022-11-13T04:29:31.925Z,12.55
2022-11-13T04:32:54.022Z,12.58
2022-11-13T04:36:16.333Z,12.54
2022-11-13T04:39:38.792Z,12.44
2022-11-13T04:43:01.323Z,12.55
2022-11-13T04:46:23.666Z,12.56
2022-11-13T04:49:46.043Z,12.58
2022-11-13T04:53:08.227Z,12.45
2022-11-13T04:56:30.449Z,12.64
2022-11-13T04:59:54.045Z,12.62
2022-11-13T05:03:16.183Z,12.54
2022-11-13T05:06:38.069Z,12.65
2022-11-13T05:10:00.231Z,12.40
2022-11-13T05:13:22.495Z,12.59
2022-11-13T05:16:46.055Z,12.70
2022-11-13T05:20:09.321Z,12.87
2022-11-13T05:23:31.530Z,12.82
2022-11-13T05:26:53.589Z,12.72
2022-11-13T05:30:16.062Z,12.81
2022-11-13T05:33:40.622Z,12.52
2022-11-13T05:37:02.904Z,12.53
2022-11-13T05:40:25.231Z,12.67
2022-11-13T05:43:47.937Z,12.72
2022-11-13T05:47:10.416Z,12.77
2022-11-13T05:50:34.160Z,12.73
2022-11-13T05:53:56.436Z,12.91
2022-11-13T05:57:18.749Z,13.09
2022-11-13T06:00:41.137Z,13.22
2022-11-13T06:04:03.641Z,13.13
2022-11-13T06:07:27.141Z,13.22
2022-11-13T06:10:49.451Z,13.39
2022-11-13T06:14:11.854Z,13.68
2022-11-13T06:17:34.000Z,13.91
2022-11-13T06:20:56.451Z,13.97
2022-11-13T06:24:19.960Z,13.98
2022-11-13T06:27:42.441Z,13.99
2022-11-13T06:31:06.139Z,13.97
2022-11-13T06:34:28.521Z,14.17
2022-11-13T06:37:50.921Z,14.46
2022-11-13T06:41:16.311Z,14.71
2022-11-13T06:44:38.401Z,15.06
2022-11-13T06:48:00.451Z,15.08
2022-11-13T06:51:24.121Z,15.12
2022-11-13T06:54:46.281Z,15.36
2022-11-13T06:58:09.851Z,15.73
2022-11-13T07:01:32.265Z,16.04
2022-11-13T07:04:54.301Z,16.47
2022-11-13T07:08:17.131Z,16.53
2022-11-13T07:11:39.301Z,16.60
2022-11-13T07:15:03.024Z,16.64
2022-11-13T07:18:25.489Z,17.01
2022-11-13T07:21:47.552Z,17.14
2022-11-13T07:25:10.351Z,17.12
2022-11-13T07:28:32.860Z,17.07
2022-11-13T07:31:56.251Z,17.44
2022-11-13T07:35:18.742Z,17.54
2022-11-13T07:38:40.673Z,17.61
2022-11-13T07:42:02.901Z,18.14
2022-11-13T07:45:25.071Z,18.23
2022-11-13T07:48:48.573Z,18.23
2022-11-13T07:52:10.962Z,18.20
2022-11-13T07:55:35.151Z,17.59
2022-11-13T07:58:57.692Z,17.27
2022-11-13T08:02:25.095Z,17.07
2022-11-13T08:05:50.012Z,17.10
2022-11-13T08:09:12.321Z,16.74
2022-11-13T08:12:34.653Z,16.83
2022-11-13T08:15:59.862Z,16.80
2022-11-13T08:19:22.003Z,16.72
2022-11-13T08:22:45.392Z,16.65
2022-11-13T08:26:08.352Z,16.44
2022-11-13T08:29:30.752Z,16.60
2022-11-13T08:32:53.216Z,16.37
2022-11-13T08:36:15.413Z,16.40
2022-11-13T08:39:39.074Z,16.52
2022-11-13T08:43:01.762Z,16.55
2022-11-13T08:46:24.061Z,16.42
2022-11-13T08:49:46.347Z,16.57
2022-11-13T08:53:08.692Z,16.59
2022-11-13T08:56:32.230Z,16.61
2022-11-13T08:59:54.572Z,17.21
2022-11-13T09:03:16.592Z,17.93
2022-11-13T09:06:39.329Z,18.62
2022-11-13T09:10:01.315Z,18.93
2022-11-13T09:13:25.013Z,18.69
2022-11-13T09:16:47.083Z,18.91
2022-11-13T09:20:13.838Z,19.25
2022-11-13T09:23:36.382Z,19.12
2022-11-13T09:26:58.486Z,18.65
2022-11-13T09:30:22.193Z,18.80
2022-11-13T09:33:44.542Z,19.22
2022-11-13T09:37:06.501Z,18.97
2022-11-13T09:40:33.593Z,18.60
2022-11-13T09:44:00.072Z,18.91
2022-11-13T09:47:28.044Z,18.46
2022-11-13T09:50:50.813Z,18.18
2022-11-13T09:54:15.183Z,18.30
2022-11-13T09:57:47.632Z,18.75
2022-11-13T10:01:17.712Z,18.96
2022-11-13T10:04:54.813Z,19.18
2022-11-13T10:08:21.281Z,19.18
2022-11-13T10:11:49.882Z,18.65
2022-11-13T10:15:13.123Z,18.23
2022-11-13T10:18:39.502Z,17.85
2022-11-13T10:22:31.609Z,17.66
2022-11-13T10:25:52.703Z,16.95
2022-11-13T10:29:17.844Z,17.91
2022-11-13T10:32:40.211Z,17.96
2022-11-13T10:36:15.742Z,18.38
2022-11-13T10:39:44.712Z,18.77
2022-11-13T10:43:08.862Z,18.50
2022-11-13T10:46:33.292Z,18.92
2022-11-13T10:49:57.685Z,19.45
2022-11-13T10:53:20.844Z,19.04
2022-11-13T10:56:44.372Z,19.31
2022-11-13T11:00:22.412Z,19.64
2022-11-13T11:03:51.246Z,19.94
2022-11-13T11:07:20.278Z,20.03
2022-11-13T11:11:03.527Z,20.31
2022-11-13T11:14:31.353Z,20.69
2022-11-13T11:17:58.982Z,20.67
2022-11-13T11:21:24.203Z,20.70
2022-11-13T11:24:59.803Z,20.40
2022-11-13T11:28:31.817Z,20.43
2022-11-13T11:32:00.564Z,20.36
2022-11-13T11:35:26.022Z,20.44
2022-11-13T11:38:54.982Z,20.48
2022-11-13T11:42:29.382Z,19.92
2022-11-13T11:45:51.810Z,19.40
2022-11-13T11:49:15.812Z,19.05
2022-11-13T11:52:55.002Z,18.99
2022-11-13T11:56:34.182Z,19.54
2022-11-13T12:00:07.142Z,19.08
2022-11-13T12:03:52.681Z,19.00
2022-11-13T12:07:30.941Z,19.45
2022-11-13T12:11:02.393Z,19.71
2022-11-13T12:14:39.162Z,20.07
2022-11-13T12:18:15.712Z,20.08
2022-11-13T12:21:49.393Z,19.74
2022-11-13T12:25:24.783Z,18.86
2022-11-13T12:28:52.561Z,19.44
2022-11-13T12:32:28.752Z,19.44
2022-11-13T12:35:54.342Z,19.41
2022-11-13T12:39:43.194Z,19.38
2022-11-13T12:43:32.583Z,19.52
2022-11-13T12:46:58.312Z,19.66
2022-11-13T12:50:31.839Z,19.82
2022-11-13T12:53:56.435Z,19.98
2022-11-13T12:57:27.172Z,19.83
2022-11-13T13:00:58.170Z,19.39
2022-11-13T13:04:36.892Z,19.23
2022-11-13T13:08:28.621Z,18.94
2022-11-13T13:12:02.301Z,18.86
2022-11-13T13:15:32.041Z,18.92
2022-11-13T13:19:07.621Z,18.57
2022-11-13T13:22:32.094Z,18.36
2022-11-13T13:26:04.576Z,18.63
2022-11-13T13:29:27.751Z,18.64
2022-11-13T13:33:00.973Z,18.49
2022-11-13T13:36:37.191Z,17.89
2022-11-13T13:40:12.841Z,18.03
2022-11-13T13:43:53.131Z,18.18
2022-11-13T13:47:28.841Z,18.28
2022-11-13T13:50:53.761Z,17.97
2022-11-13T13:54:21.421Z,17.90
2022-11-13T13:57:47.193Z,17.88
2022-11-13T14:01:19.904Z,18.05
2022-11-13T14:04:46.261Z,18.08
2022-11-13T14:08:18.520Z,18.09
2022-11-13T14:11:42.241Z,18.05
2022-11-13T14:15:07.281Z,17.81
2022-11-13T14:18:32.211Z,17.84
2022-11-13T14:21:57.860Z,17.52
2022-11-13T14:25:24.788Z,17.50
2022-11-13T14:28:56.891Z,17.52
2022-11-13T14:32:26.039Z,17.42
2022-11-13T14:35:55.200Z,17.35
2022-11-13T14:39:27.083Z,17.33
2022-11-13T14:42:53.223Z,17.34
2022-11-13T14:46:29.192Z,17.02
2022-11-13T14:49:51.591Z,16.36
2022-11-13T14:53:13.640Z,16.22
2022-11-13T14:56:38.463Z,16.42
2022-11-13T15:00:13.380Z,16.40
2022-11-13T15:03:36.701Z,16.34
2022-11-13T15:07:01.339Z,16.17
2022-11-13T15:10:25.844Z,16.29
2022-11-13T15:13:49.645Z,16.27
2022-11-13T15:17:17.483Z,16.27
2022-11-13T15:20:43.361Z,16.17
2022-11-13T15:24:06.382Z,15.93
2022-11-13T15:27:29.553Z,15.95
2022-11-13T15:30:54.422Z,15.87
2022-11-13T15:34:17.522Z,15.93
2022-11-13T15:37:43.623Z,15.93
2022-11-13T15:41:15.972Z,15.84
2022-11-13T15:44:38.256Z,15.74
2022-11-13T15:48:00.192Z,15.63
2022-11-13T15:51:24.212Z,15.35
2022-11-13T15:54:55.161Z,15.35
2022-11-13T15:58:17.795Z,15.23
2022-11-13T16:01:40.102Z,15.31
2022-11-13T16:05:02.353Z,15.34
2022-11-13T16:08:24.834Z,15.08
2022-11-13T16:11:48.872Z,15.23
2022-11-13T16:15:15.465Z,15.24
2022-11-13T16:18:37.773Z,15.19
2022-11-13T16:22:02.480Z,14.95
2022-11-13T16:25:24.721Z,14.63
2022-11-13T16:29:12.024Z,14.70
2022-11-13T16:32:31.144Z,14.84
2022-11-13T16:35:53.593Z,14.84
2022-11-13T16:39:18.085Z,14.87
2022-11-13T16:42:39.971Z,14.91
2022-11-13T16:46:04.421Z,14.88
2022-11-13T16:49:26.731Z,15.07
2022-11-13T16:52:49.384Z,14.95
2022-11-13T16:56:17.631Z,15.02
2022-11-13T16:59:40.412Z,14.89
2022-11-13T17:03:04.101Z,14.88
2022-11-13T17:06:28.782Z,14.92
2022-11-13T17:10:10.061Z,15.03
2022-11-13T17:13:33.849Z,15.00
2022-11-13T17:16:56.101Z,14.92
2022-11-13T17:20:20.233Z,14.87
2022-11-13T17:23:42.812Z,14.80
2022-11-13T17:27:05.240Z,14.70
2022-11-13T17:30:27.422Z,14.91
2022-11-13T17:33:49.731Z,14.62
2022-11-13T17:37:13.282Z,14.69
2022-11-13T17:40:35.611Z,14.86
2022-11-13T17:44:01.459Z,14.66
2022-11-13T17:47:24.441Z,14.69
2022-11-13T17:50:57.072Z,14.74
2022-11-13T17:54:20.772Z,14.57
2022-11-13T17:57:42.994Z,14.34
2022-11-13T18:01:06.974Z,14.37
2022-11-13T18:04:28.893Z,14.37
2022-11-13T18:07:51.193Z,14.39
2022-11-13T18:11:16.882Z,14.36
2022-11-13T18:14:39.104Z,14.35
2022-11-13T18:18:01.353Z,14.44
2022-11-13T18:21:26.823Z,14.48
2022-11-13T18:24:49.146Z,14.16
2022-11-13T18:28:12.473Z,14.15
2022-11-13T18:31:34.722Z,14.02
2022-11-13T18:34:56.702Z,14.27
2022-11-13T18:38:18.752Z,14.31
2022-11-13T18:41:41.024Z,14.31
2022-11-13T18:45:06.178Z,14.27
2022-11-13T18:48:31.982Z,14.10
2022-11-13T18:51:54.062Z,14.22
2022-11-13T18:55:16.422Z,14.08
2022-11-13T18:58:39.903Z,13.92
2022-11-13T19:02:03.529Z,14.13
2022-11-13T19:05:25.932Z,13.99
2022-11-13T19:08:49.042Z,14.01
2022-11-13T19:12:11.131Z,14.03
2022-11-13T19:15:34.342Z,14.11
2022-11-13T19:18:59.853Z,14.14
2022-11-13T19:22:22.190Z,14.07
2022-11-13T19:25:44.552Z,14.04
2022-11-13T19:29:06.642Z,13.98
2022-11-13T19:32:29.263Z,13.60
2022-11-13T19:35:54.872Z,13.61
2022-11-13T19:39:17.032Z,13.60
2022-11-13T19:42:41.843Z,13.65
2022-11-13T19:46:05.692Z,13.71
2022-11-13T19:49:28.361Z,13.45
2022-11-13T19:52:52.063Z,13.49
2022-11-13T19:56:16.192Z,13.29
2022-11-13T19:59:39.694Z,13.62
2022-11-13T20:03:06.564Z,13.53
2022-11-13T20:06:31.657Z,13.56
2022-11-13T20:09:55.312Z,13.52
2022-11-13T20:13:17.853Z,13.50
2022-11-13T20:16:40.106Z,13.50
2022-11-13T20:20:02.543Z,13.52
2022-11-13T20:23:26.192Z,13.54
2022-11-13T20:26:49.725Z,13.40
2022-11-13T20:30:13.222Z,13.43
2022-11-13T20:33:36.422Z,13.23
2022-11-13T20:36:58.841Z,13.34
2022-11-13T20:40:21.042Z,13.38
2022-11-13T20:43:44.755Z,13.27
2022-11-13T20:47:07.371Z,13.25
2022-11-13T20:50:29.802Z,12.76
2022-11-13T20:53:52.786Z,12.87
2022-11-13T20:57:14.991Z,12.83
2022-11-13T21:00:38.983Z,12.70
2022-11-13T21:04:01.443Z,12.88
2022-11-13T21:07:23.612Z,12.74
2022-11-13T21:10:46.015Z,12.55
2022-11-13T21:14:08.214Z,12.76
2022-11-13T21:17:32.197Z,12.70
2022-11-13T21:20:54.692Z,12.63
2022-11-13T21:24:16.930Z,12.62
2022-11-13T21:27:40.435Z,12.57
2022-11-13T21:31:05.992Z,12.54
2022-11-13T21:34:29.664Z,12.55
2022-11-13T21:37:52.092Z,12.50
2022-11-13T21:41:25.882Z,12.53
2022-11-13T21:44:47.863Z,12.43
2022-11-13T21:48:10.119Z,12.32
2022-11-13T21:51:35.332Z,12.54
2022-11-13T21:54:57.653Z,12.30
2022-11-13T21:58:19.672Z,12.47
2022-11-13T22:01:41.766Z,12.33
2022-11-13T22:05:03.812Z,12.11
2022-11-13T22:08:28.051Z,11.90
2022-11-13T22:11:50.673Z,12.14
2022-11-13T22:15:13.333Z,12.11
2022-11-13T22:18:36.302Z,11.94
2022-11-13T22:21:58.542Z,11.43
2022-11-13T22:25:22.163Z,11.46
2022-11-13T22:28:46.161Z,10.82
2022-11-13T22:32:08.173Z,11.26
2022-11-13T22:35:31.252Z,11.01
2022-11-13T22:38:54.357Z,10.93
2022-11-13T22:42:18.122Z,11.36
2022-11-13T22:45:40.384Z,11.49
2022-11-13T22:49:03.901Z,11.30
2022-11-13T22:52:26.102Z,11.51
2022-11-13T22:55:48.166Z,11.62
2022-11-13T22:59:13.402Z,11.65
2022-11-13T23:02:35.551Z,11.21
2022-11-13T23:05:57.984Z,11.07
2022-11-13T23:09:20.091Z,10.77
2022-11-13T23:12:43.141Z,10.81
2022-11-13T23:16:07.032Z,11.05
2022-11-13T23:19:29.211Z,11.34
2022-11-13T23:22:51.283Z,11.31
2022-11-13T23:26:15.004Z,11.43
2022-11-13T23:29:37.482Z,11.27
2022-11-13T23:33:01.263Z,11.22
2022-11-13T23:36:24.103Z,11.40
2022-11-13T23:39:46.651Z,11.33
2022-11-13T23:43:08.962Z,11.18
2022-11-13T23:46:31.279Z,11.38
2022-11-13T23:49:54.774Z,11.33
2022-11-13T23:53:17.256Z,11.23
2022-11-13T23:56:39.316Z,11.31
